sensor_id;sensor_type;location;lat;lon;timestamp;temperature;humidity
46652;DHT22;32377;52.182;5.398;2024-03-22T00:01:44;11.70;99.90
46652;DHT22;32377;52.182;5.398;2024-03-22T00:04:11;11.70;99.90
46652;DHT22;32377;52.182;5.398;2024-03-22T00:06:37;11.70;99.90
46652;DHT22;32377;52.182;5.398;2024-03-22T00:09:03;11.70;99.90
46652;DHT22;32377;52.182;5.398;2024-03-22T00:11:28;11.80;99.90
46652;DHT22;32377;52.182;5.398;2024-03-22T00:13:54;11.70;99.90
46652;DHT22;32377;52.182;5.398;2024-03-22T00:16:19;11.70;99.90
46652;DHT22;32377;52.182;5.398;2024-03-22T00:18:45;11.70;99.90
46652;DHT22;32377;52.182;5.398;2024-03-22T00:21:11;11.70;99.90
46652;DHT22;32377;52.182;5.398;2024-03-22T00:23:36;11.70;99.90
46652;DHT22;32377;52.182;5.398;2024-03-22T00:26:02;11.70;99.90
46652;DHT22;32377;52.182;5.398;2024-03-22T00:28:27;11.70;99.90
46652;DHT22;32377;52.182;5.398;2024-03-22T00:30:53;11.60;99.90
46652;DHT22;32377;52.182;5.398;2024-03-22T00:33:19;11.60;99.90
46652;DHT22;32377;52.182;5.398;2024-03-22T00:35:44;11.60;99.90
46652;DHT22;32377;52.182;5.398;2024-03-22T00:38:10;11.60;99.90
46652;DHT22;32377;52.182;5.398;2024-03-22T00:40:35;11.60;99.90
46652;DHT22;32377;52.182;5.398;2024-03-22T00:43:01;11.60;99.90
46652;DHT22;32377;52.182;5.398;2024-03-22T00:45:26;11.60;99.90
46652;DHT22;32377;52.182;5.398;2024-03-22T00:47:52;11.70;99.90
46652;DHT22;32377;52.182;5.398;2024-03-22T00:50:18;11.70;99.90
46652;DHT22;32377;52.182;5.398;2024-03-22T00:52:43;11.70;99.90
46652;DHT22;32377;52.182;5.398;2024-03-22T00:55:09;11.70;99.90
46652;DHT22;32377;52.182;5.398;2024-03-22T00:57:35;11.70;99.90
46652;DHT22;32377;52.182;5.398;2024-03-22T01:00:00;11.70;99.90
46652;DHT22;32377;52.182;5.398;2024-03-22T01:02:26;11.60;99.90
46652;DHT22;32377;52.182;5.398;2024-03-22T01:04:51;11.70;99.90
46652;DHT22;32377;52.182;5.398;2024-03-22T01:07:17;11.70;99.90
46652;DHT22;32377;52.182;5.398;2024-03-22T01:09:42;11.70;99.90
46652;DHT22;32377;52.182;5.398;2024-03-22T01:12:10;11.70;99.90
46652;DHT22;32377;52.182;5.398;2024-03-22T01:14:35;11.70;99.90
46652;DHT22;32377;52.182;5.398;2024-03-22T01:17:01;11.70;99.90
46652;DHT22;32377;52.182;5.398;2024-03-22T01:19:27;11.70;99.90
46652;DHT22;32377;52.182;5.398;2024-03-22T01:21:52;11.60;99.90
46652;DHT22;32377;52.182;5.398;2024-03-22T01:24:18;11.60;99.90
46652;DHT22;32377;52.182;5.398;2024-03-22T01:26:43;11.70;99.90
46652;DHT22;32377;52.182;5.398;2024-03-22T01:29:09;11.60;99.90
46652;DHT22;32377;52.182;5.398;2024-03-22T01:31:34;11.70;99.90
46652;DHT22;32377;52.182;5.398;2024-03-22T01:34:00;11.70;99.90
46652;DHT22;32377;52.182;5.398;2024-03-22T01:36:25;11.70;99.90
46652;DHT22;32377;52.182;5.398;2024-03-22T01:38:51;11.80;99.90
46652;DHT22;32377;52.182;5.398;2024-03-22T01:41:17;11.80;99.90
46652;DHT22;32377;52.182;5.398;2024-03-22T01:43:43;11.90;99.90
46652;DHT22;32377;52.182;5.398;2024-03-22T01:46:09;11.80;99.90
46652;DHT22;32377;52.182;5.398;2024-03-22T01:48:34;11.80;99.90
46652;DHT22;32377;52.182;5.398;2024-03-22T01:51:01;11.80;99.90
46652;DHT22;32377;52.182;5.398;2024-03-22T01:53:27;11.80;99.90
46652;DHT22;32377;52.182;5.398;2024-03-22T01:55:53;11.70;99.90
46652;DHT22;32377;52.182;5.398;2024-03-22T01:58:19;11.70;99.90
46652;DHT22;32377;52.182;5.398;2024-03-22T02:00:44;11.70;99.90
46652;DHT22;32377;52.182;5.398;2024-03-22T02:03:11;11.70;99.90
46652;DHT22;32377;52.182;5.398;2024-03-22T02:05:36;11.70;99.90
46652;DHT22;32377;52.182;5.398;2024-03-22T02:08:02;11.70;99.90
46652;DHT22;32377;52.182;5.398;2024-03-22T02:10:28;11.70;99.90
46652;DHT22;32377;52.182;5.398;2024-03-22T02:12:53;11.70;99.90
46652;DHT22;32377;52.182;5.398;2024-03-22T02:15:19;11.70;99.90
46652;DHT22;32377;52.182;5.398;2024-03-22T02:17:44;11.70;99.90
46652;DHT22;32377;52.182;5.398;2024-03-22T02:20:10;11.70;99.90
46652;DHT22;32377;52.182;5.398;2024-03-22T02:22:38;11.70;99.90
46652;DHT22;32377;52.182;5.398;2024-03-22T02:25:04;11.70;99.90
46652;DHT22;32377;52.182;5.398;2024-03-22T02:27:29;11.80;99.90
46652;DHT22;32377;52.182;5.398;2024-03-22T02:29:55;11.80;99.90
46652;DHT22;32377;52.182;5.398;2024-03-22T02:32:21;11.80;99.90
46652;DHT22;32377;52.182;5.398;2024-03-22T02:34:46;11.80;99.90
46652;DHT22;32377;52.182;5.398;2024-03-22T02:37:12;11.70;99.90
46652;DHT22;32377;52.182;5.398;2024-03-22T02:39:37;11.70;99.90
46652;DHT22;32377;52.182;5.398;2024-03-22T02:42:03;11.70;99.90
46652;DHT22;32377;52.182;5.398;2024-03-22T02:44:29;11.70;99.90
46652;DHT22;32377;52.182;5.398;2024-03-22T02:46:54;11.60;99.90
46652;DHT22;32377;52.182;5.398;2024-03-22T02:49:20;11.60;99.90
46652;DHT22;32377;52.182;5.398;2024-03-22T02:51:46;11.70;99.90
46652;DHT22;32377;52.182;5.398;2024-03-22T02:54:11;11.60;99.90
46652;DHT22;32377;52.182;5.398;2024-03-22T02:56:37;11.60;99.90
46652;DHT22;32377;52.182;5.398;2024-03-22T02:59:02;11.60;99.90
46652;DHT22;32377;52.182;5.398;2024-03-22T03:01:28;11.60;99.90
46652;DHT22;32377;52.182;5.398;2024-03-22T03:03:53;11.50;99.90
46652;DHT22;32377;52.182;5.398;2024-03-22T03:06:19;11.50;99.90
46652;DHT22;32377;52.182;5.398;2024-03-22T03:08:45;11.50;99.90
46652;DHT22;32377;52.182;5.398;2024-03-22T03:11:11;11.40;99.90
46652;DHT22;32377;52.182;5.398;2024-03-22T03:13:37;11.40;99.90
46652;DHT22;32377;52.182;5.398;2024-03-22T03:16:03;11.40;99.90
46652;DHT22;32377;52.182;5.398;2024-03-22T03:18:28;11.40;99.90
46652;DHT22;32377;52.182;5.398;2024-03-22T03:20:54;11.30;99.90
46652;DHT22;32377;52.182;5.398;2024-03-22T03:23:20;11.30;99.90
46652;DHT22;32377;52.182;5.398;2024-03-22T03:25:46;11.30;99.90
46652;DHT22;32377;52.182;5.398;2024-03-22T03:28:11;11.30;99.90
46652;DHT22;32377;52.182;5.398;2024-03-22T03:30:38;11.20;99.90
46652;DHT22;32377;52.182;5.398;2024-03-22T03:33:04;11.20;99.90
46652;DHT22;32377;52.182;5.398;2024-03-22T03:35:30;11.20;99.90
46652;DHT22;32377;52.182;5.398;2024-03-22T03:37:56;11.20;99.90
46652;DHT22;32377;52.182;5.398;2024-03-22T03:40:21;11.20;99.90
46652;DHT22;32377;52.182;5.398;2024-03-22T03:42:50;11.20;99.90
46652;DHT22;32377;52.182;5.398;2024-03-22T03:45:16;11.20;99.90
46652;DHT22;32377;52.182;5.398;2024-03-22T03:47:41;11.10;99.90
46652;DHT22;32377;52.182;5.398;2024-03-22T03:50:07;11.20;99.90
46652;DHT22;32377;52.182;5.398;2024-03-22T03:52:32;11.20;99.90
46652;DHT22;32377;52.182;5.398;2024-03-22T03:54:58;11.10;99.90
46652;DHT22;32377;52.182;5.398;2024-03-22T03:57:24;11.10;99.90
46652;DHT22;32377;52.182;5.398;2024-03-22T03:59:49;11.00;99.90
46652;DHT22;32377;52.182;5.398;2024-03-22T04:02:15;11.00;99.90
46652;DHT22;32377;52.182;5.398;2024-03-22T04:04:40;11.00;99.90
46652;DHT22;32377;52.182;5.398;2024-03-22T04:07:06;11.00;99.90
46652;DHT22;32377;52.182;5.398;2024-03-22T04:09:31;11.00;99.90
46652;DHT22;32377;52.182;5.398;2024-03-22T04:11:58;11.00;99.90
46652;DHT22;32377;52.182;5.398;2024-03-22T04:14:25;11.00;99.90
46652;DHT22;32377;52.182;5.398;2024-03-22T04:16:50;11.00;99.90
46652;DHT22;32377;52.182;5.398;2024-03-22T04:19:16;11.00;99.90
46652;DHT22;32377;52.182;5.398;2024-03-22T04:21:42;11.00;99.90
46652;DHT22;32377;52.182;5.398;2024-03-22T04:24:08;11.00;99.90
46652;DHT22;32377;52.182;5.398;2024-03-22T04:26:33;11.00;99.90
46652;DHT22;32377;52.182;5.398;2024-03-22T04:28:59;11.00;99.90
46652;DHT22;32377;52.182;5.398;2024-03-22T04:31:24;11.00;99.90
46652;DHT22;32377;52.182;5.398;2024-03-22T04:33:50;11.00;99.90
46652;DHT22;32377;52.182;5.398;2024-03-22T04:36:16;10.90;99.90
46652;DHT22;32377;52.182;5.398;2024-03-22T04:38:41;11.00;99.90
46652;DHT22;32377;52.182;5.398;2024-03-22T04:41:07;10.90;99.90
46652;DHT22;32377;52.182;5.398;2024-03-22T04:43:32;10.90;99.90
46652;DHT22;32377;52.182;5.398;2024-03-22T04:45:58;10.90;99.90
46652;DHT22;32377;52.182;5.398;2024-03-22T04:48:24;11.00;99.90
46652;DHT22;32377;52.182;5.398;2024-03-22T04:50:50;10.90;99.90
46652;DHT22;32377;52.182;5.398;2024-03-22T04:53:17;10.90;99.90
46652;DHT22;32377;52.182;5.398;2024-03-22T04:58:51;10.90;99.90
46652;DHT22;32377;52.182;5.398;2024-03-22T05:01:17;10.90;99.90
46652;DHT22;32377;52.182;5.398;2024-03-22T05:03:43;10.90;99.90
46652;DHT22;32377;52.182;5.398;2024-03-22T05:06:09;10.90;99.90
46652;DHT22;32377;52.182;5.398;2024-03-22T05:08:34;10.90;99.90
46652;DHT22;32377;52.182;5.398;2024-03-22T05:11:00;10.90;99.90
46652;DHT22;32377;52.182;5.398;2024-03-22T05:13:26;10.90;99.90
46652;DHT22;32377;52.182;5.398;2024-03-22T05:15:51;10.90;99.90
46652;DHT22;32377;52.182;5.398;2024-03-22T05:18:17;10.90;99.90
46652;DHT22;32377;52.182;5.398;2024-03-22T05:20:42;10.90;99.90
46652;DHT22;32377;52.182;5.398;2024-03-22T05:23:08;10.90;99.90
46652;DHT22;32377;52.182;5.398;2024-03-22T05:25:33;10.90;99.90
46652;DHT22;32377;52.182;5.398;2024-03-22T05:27:59;10.90;99.90
46652;DHT22;32377;52.182;5.398;2024-03-22T05:30:25;10.90;99.90
46652;DHT22;32377;52.182;5.398;2024-03-22T05:32:50;10.80;99.90
46652;DHT22;32377;52.182;5.398;2024-03-22T05:35:16;10.80;99.90
46652;DHT22;32377;52.182;5.398;2024-03-22T05:37:42;10.80;99.90
46652;DHT22;32377;52.182;5.398;2024-03-22T05:40:08;10.70;99.90
46652;DHT22;32377;52.182;5.398;2024-03-22T05:42:34;10.70;99.90
46652;DHT22;32377;52.182;5.398;2024-03-22T05:45:00;10.70;99.90
46652;DHT22;32377;52.182;5.398;2024-03-22T05:47:25;10.60;99.90
46652;DHT22;32377;52.182;5.398;2024-03-22T05:49:51;10.60;99.90
46652;DHT22;32377;52.182;5.398;2024-03-22T05:52:17;10.60;99.90
46652;DHT22;32377;52.182;5.398;2024-03-22T05:54:43;10.60;99.90
46652;DHT22;32377;52.182;5.398;2024-03-22T05:57:08;10.50;99.90
46652;DHT22;32377;52.182;5.398;2024-03-22T05:59:34;10.50;99.90
46652;DHT22;32377;52.182;5.398;2024-03-22T06:02:00;10.50;99.90
46652;DHT22;32377;52.182;5.398;2024-03-22T06:04:26;10.50;99.90
46652;DHT22;32377;52.182;5.398;2024-03-22T06:06:52;10.50;99.90
46652;DHT22;32377;52.182;5.398;2024-03-22T06:09:17;10.50;99.90
46652;DHT22;32377;52.182;5.398;2024-03-22T06:11:52;10.50;99.90
46652;DHT22;32377;52.182;5.398;2024-03-22T06:14:18;10.50;99.90
46652;DHT22;32377;52.182;5.398;2024-03-22T06:16:43;10.50;99.90
46652;DHT22;32377;52.182;5.398;2024-03-22T06:19:09;10.60;99.90
46652;DHT22;32377;52.182;5.398;2024-03-22T06:21:35;10.60;99.90
46652;DHT22;32377;52.182;5.398;2024-03-22T06:24:00;10.70;99.90
46652;DHT22;32377;52.182;5.398;2024-03-22T06:26:26;10.70;99.90
46652;DHT22;32377;52.182;5.398;2024-03-22T06:28:51;10.80;99.90
46652;DHT22;32377;52.182;5.398;2024-03-22T06:31:17;10.80;99.90
46652;DHT22;32377;52.182;5.398;2024-03-22T06:33:43;10.90;99.90
46652;DHT22;32377;52.182;5.398;2024-03-22T06:36:08;10.90;99.90
46652;DHT22;32377;52.182;5.398;2024-03-22T06:38:34;11.00;99.90
46652;DHT22;32377;52.182;5.398;2024-03-22T06:40:59;11.00;99.90
46652;DHT22;32377;52.182;5.398;2024-03-22T06:43:25;11.10;99.90
46652;DHT22;32377;52.182;5.398;2024-03-22T06:45:51;11.10;99.90
46652;DHT22;32377;52.182;5.398;2024-03-22T06:48:17;11.20;99.90
46652;DHT22;32377;52.182;5.398;2024-03-22T06:50:42;11.20;99.90
46652;DHT22;32377;52.182;5.398;2024-03-22T06:53:08;11.20;99.90
46652;DHT22;32377;52.182;5.398;2024-03-22T06:55:36;11.20;99.90
46652;DHT22;32377;52.182;5.398;2024-03-22T06:58:01;11.30;99.90
46652;DHT22;32377;52.182;5.398;2024-03-22T07:00:27;11.30;99.90
46652;DHT22;32377;52.182;5.398;2024-03-22T07:02:52;11.40;99.90
46652;DHT22;32377;52.182;5.398;2024-03-22T07:05:18;11.40;99.90
46652;DHT22;32377;52.182;5.398;2024-03-22T07:07:43;11.40;99.90
46652;DHT22;32377;52.182;5.398;2024-03-22T07:10:09;11.40;90.40
46652;DHT22;32377;52.182;5.398;2024-03-22T07:12:35;11.30;23.80
46652;DHT22;32377;52.182;5.398;2024-03-22T07:15:01;11.40;1.00
46652;DHT22;32377;52.182;5.398;2024-03-22T07:17:27;11.40;1.00
46652;DHT22;32377;52.182;5.398;2024-03-22T07:19:53;11.40;1.00
46652;DHT22;32377;52.182;5.398;2024-03-22T07:22:20;11.40;1.00
46652;DHT22;32377;52.182;5.398;2024-03-22T07:24:45;11.50;99.90
46652;DHT22;32377;52.182;5.398;2024-03-22T07:27:12;11.50;99.90
46652;DHT22;32377;52.182;5.398;2024-03-22T07:29:39;11.60;99.90
46652;DHT22;32377;52.182;5.398;2024-03-22T07:32:05;11.60;99.90
46652;DHT22;32377;52.182;5.398;2024-03-22T07:34:31;11.60;99.90
46652;DHT22;32377;52.182;5.398;2024-03-22T07:36:57;11.60;99.90
46652;DHT22;32377;52.182;5.398;2024-03-22T07:39:22;11.50;99.90
46652;DHT22;32377;52.182;5.398;2024-03-22T07:41:49;11.60;99.90
46652;DHT22;32377;52.182;5.398;2024-03-22T07:44:15;11.60;99.90
46652;DHT22;32377;52.182;5.398;2024-03-22T07:46:46;11.50;99.90
46652;DHT22;32377;52.182;5.398;2024-03-22T07:49:12;11.50;99.90
46652;DHT22;32377;52.182;5.398;2024-03-22T07:51:38;11.50;99.90
46652;DHT22;32377;52.182;5.398;2024-03-22T07:54:04;11.50;99.90
46652;DHT22;32377;52.182;5.398;2024-03-22T07:56:29;11.50;99.90
46652;DHT22;32377;52.182;5.398;2024-03-22T07:58:55;11.50;99.90
46652;DHT22;32377;52.182;5.398;2024-03-22T08:01:21;11.50;99.90
46652;DHT22;32377;52.182;5.398;2024-03-22T08:03:47;11.40;99.90
46652;DHT22;32377;52.182;5.398;2024-03-22T08:06:12;11.40;99.90
46652;DHT22;32377;52.182;5.398;2024-03-22T08:08:38;11.40;99.90
46652;DHT22;32377;52.182;5.398;2024-03-22T08:11:04;11.40;99.90
46652;DHT22;32377;52.182;5.398;2024-03-22T08:13:29;11.40;99.90
46652;DHT22;32377;52.182;5.398;2024-03-22T08:15:55;11.40;99.90
46652;DHT22;32377;52.182;5.398;2024-03-22T08:18:21;11.40;99.90
46652;DHT22;32377;52.182;5.398;2024-03-22T08:20:46;11.40;99.90
46652;DHT22;32377;52.182;5.398;2024-03-22T08:23:12;11.40;1.00
46652;DHT22;32377;52.182;5.398;2024-03-22T08:25:38;11.40;1.00
46652;DHT22;32377;52.182;5.398;2024-03-22T08:28:04;11.40;1.00
46652;DHT22;32377;52.182;5.398;2024-03-22T08:30:29;11.40;1.00
46652;DHT22;32377;52.182;5.398;2024-03-22T08:32:55;11.30;11.30
46652;DHT22;32377;52.182;5.398;2024-03-22T08:35:20;11.40;99.90
46652;DHT22;32377;52.182;5.398;2024-03-22T08:37:46;11.30;99.90
46652;DHT22;32377;52.182;5.398;2024-03-22T08:40:12;11.20;99.90
46652;DHT22;32377;52.182;5.398;2024-03-22T08:42:39;11.20;99.90
46652;DHT22;32377;52.182;5.398;2024-03-22T08:45:05;11.10;99.90
46652;DHT22;32377;52.182;5.398;2024-03-22T08:47:31;11.10;99.90
46652;DHT22;32377;52.182;5.398;2024-03-22T08:49:59;11.20;99.90
46652;DHT22;32377;52.182;5.398;2024-03-22T08:52:24;11.10;99.90
46652;DHT22;32377;52.182;5.398;2024-03-22T08:54:52;11.10;99.90
46652;DHT22;32377;52.182;5.398;2024-03-22T08:57:17;11.10;99.90
46652;DHT22;32377;52.182;5.398;2024-03-22T08:59:43;11.10;99.90
46652;DHT22;32377;52.182;5.398;2024-03-22T09:02:09;11.10;99.90
46652;DHT22;32377;52.182;5.398;2024-03-22T09:04:34;11.10;99.90
46652;DHT22;32377;52.182;5.398;2024-03-22T09:07:00;11.10;99.90
46652;DHT22;32377;52.182;5.398;2024-03-22T09:09:25;11.10;99.90
46652;DHT22;32377;52.182;5.398;2024-03-22T09:11:51;11.10;99.90
46652;DHT22;32377;52.182;5.398;2024-03-22T09:14:16;11.10;99.90
46652;DHT22;32377;52.182;5.398;2024-03-22T09:16:42;11.00;99.90
46652;DHT22;32377;52.182;5.398;2024-03-22T09:19:08;11.00;99.90
46652;DHT22;32377;52.182;5.398;2024-03-22T09:21:33;11.00;99.90
46652;DHT22;32377;52.182;5.398;2024-03-22T09:23:59;11.00;99.90
46652;DHT22;32377;52.182;5.398;2024-03-22T09:26:25;11.10;99.90
46652;DHT22;32377;52.182;5.398;2024-03-22T09:28:51;11.10;99.90
46652;DHT22;32377;52.182;5.398;2024-03-22T09:31:17;11.10;99.90
46652;DHT22;32377;52.182;5.398;2024-03-22T09:33:43;11.10;99.90
46652;DHT22;32377;52.182;5.398;2024-03-22T09:36:08;11.10;99.90
46652;DHT22;32377;52.182;5.398;2024-03-22T09:38:34;11.10;99.90
46652;DHT22;32377;52.182;5.398;2024-03-22T09:41:00;11.10;99.90
46652;DHT22;32377;52.182;5.398;2024-03-22T09:43:27;11.10;99.90
46652;DHT22;32377;52.182;5.398;2024-03-22T09:45:55;11.00;99.90
46652;DHT22;32377;52.182;5.398;2024-03-22T09:48:21;11.00;99.90
46652;DHT22;32377;52.182;5.398;2024-03-22T09:50:47;11.10;99.90
46652;DHT22;32377;52.182;5.398;2024-03-22T09:53:17;11.00;99.90
46652;DHT22;32377;52.182;5.398;2024-03-22T09:55:45;11.00;99.90
46652;DHT22;32377;52.182;5.398;2024-03-22T09:58:11;11.00;99.90
46652;DHT22;32377;52.182;5.398;2024-03-22T10:00:36;11.10;99.90
46652;DHT22;32377;52.182;5.398;2024-03-22T10:03:03;11.00;99.90
46652;DHT22;32377;52.182;5.398;2024-03-22T10:05:30;11.10;99.90
46652;DHT22;32377;52.182;5.398;2024-03-22T10:07:55;11.10;99.90
46652;DHT22;32377;52.182;5.398;2024-03-22T10:10:21;11.10;99.90
46652;DHT22;32377;52.182;5.398;2024-03-22T10:12:47;11.10;99.90
46652;DHT22;32377;52.182;5.398;2024-03-22T10:15:13;11.10;99.90
46652;DHT22;32377;52.182;5.398;2024-03-22T10:17:39;11.10;99.90
46652;DHT22;32377;52.182;5.398;2024-03-22T10:20:06;11.20;99.90
46652;DHT22;32377;52.182;5.398;2024-03-22T10:22:58;11.20;99.90
46652;DHT22;32377;52.182;5.398;2024-03-22T10:25:26;11.20;99.90
46652;DHT22;32377;52.182;5.398;2024-03-22T10:27:54;11.30;99.90
46652;DHT22;32377;52.182;5.398;2024-03-22T10:30:19;11.30;99.90
46652;DHT22;32377;52.182;5.398;2024-03-22T10:32:45;11.30;99.90
46652;DHT22;32377;52.182;5.398;2024-03-22T10:35:14;11.30;99.90
46652;DHT22;32377;52.182;5.398;2024-03-22T10:37:40;11.40;99.90
46652;DHT22;32377;52.182;5.398;2024-03-22T10:40:08;11.40;99.90
46652;DHT22;32377;52.182;5.398;2024-03-22T10:42:39;11.40;99.90
46652;DHT22;32377;52.182;5.398;2024-03-22T10:45:06;11.40;99.90
46652;DHT22;32377;52.182;5.398;2024-03-22T10:47:33;11.30;99.90
46652;DHT22;32377;52.182;5.398;2024-03-22T10:50:07;11.30;99.90
46652;DHT22;32377;52.182;5.398;2024-03-22T10:52:48;11.40;99.90
46652;DHT22;32377;52.182;5.398;2024-03-22T10:58:50;11.40;99.90
46652;DHT22;32377;52.182;5.398;2024-03-22T11:01:25;11.40;99.90
46652;DHT22;32377;52.182;5.398;2024-03-22T11:04:14;11.50;99.90
46652;DHT22;32377;52.182;5.398;2024-03-22T11:06:38;11.50;99.90
46652;DHT22;32377;52.182;5.398;2024-03-22T11:09:03;11.60;99.90
46652;DHT22;32377;52.182;5.398;2024-03-22T11:11:35;11.60;99.90
46652;DHT22;32377;52.182;5.398;2024-03-22T11:14:03;11.70;99.90
46652;DHT22;32377;52.182;5.398;2024-03-22T11:16:29;11.70;99.90
46652;DHT22;32377;52.182;5.398;2024-03-22T11:18:55;11.80;99.90
46652;DHT22;32377;52.182;5.398;2024-03-22T11:21:21;11.80;99.90
46652;DHT22;32377;52.182;5.398;2024-03-22T11:23:47;11.70;99.90
46652;DHT22;32377;52.182;5.398;2024-03-22T11:26:12;11.60;99.90
46652;DHT22;32377;52.182;5.398;2024-03-22T11:28:39;11.70;99.90
46652;DHT22;32377;52.182;5.398;2024-03-22T11:31:05;11.80;99.90
46652;DHT22;32377;52.182;5.398;2024-03-22T11:33:31;11.80;99.90
46652;DHT22;32377;52.182;5.398;2024-03-22T11:36:00;11.70;99.90
46652;DHT22;32377;52.182;5.398;2024-03-22T11:38:26;11.80;99.90
46652;DHT22;32377;52.182;5.398;2024-03-22T11:40:57;11.80;99.90
46652;DHT22;32377;52.182;5.398;2024-03-22T11:43:23;11.70;99.90
46652;DHT22;32377;52.182;5.398;2024-03-22T11:45:49;11.70;99.90
46652;DHT22;32377;52.182;5.398;2024-03-22T11:48:15;11.70;99.90
46652;DHT22;32377;52.182;5.398;2024-03-22T11:50:41;11.80;99.90
46652;DHT22;32377;52.182;5.398;2024-03-22T11:53:07;11.90;99.90
46652;DHT22;32377;52.182;5.398;2024-03-22T11:55:35;11.90;99.90
46652;DHT22;32377;52.182;5.398;2024-03-22T11:58:01;11.90;99.90
46652;DHT22;32377;52.182;5.398;2024-03-22T12:00:28;11.80;99.90
46652;DHT22;32377;52.182;5.398;2024-03-22T12:02:54;11.80;99.90
46652;DHT22;32377;52.182;5.398;2024-03-22T12:05:21;11.70;99.90
46652;DHT22;32377;52.182;5.398;2024-03-22T12:07:46;11.60;99.90
46652;DHT22;32377;52.182;5.398;2024-03-22T12:10:12;11.70;99.90
46652;DHT22;32377;52.182;5.398;2024-03-22T12:12:38;11.70;99.90
46652;DHT22;32377;52.182;5.398;2024-03-22T12:15:04;11.60;99.90
46652;DHT22;32377;52.182;5.398;2024-03-22T12:17:30;11.40;99.90
46652;DHT22;32377;52.182;5.398;2024-03-22T12:19:56;11.40;99.90
46652;DHT22;32377;52.182;5.398;2024-03-22T12:22:24;11.30;99.90
46652;DHT22;32377;52.182;5.398;2024-03-22T12:24:51;11.20;99.90
46652;DHT22;32377;52.182;5.398;2024-03-22T12:27:17;11.20;99.90
46652;DHT22;32377;52.182;5.398;2024-03-22T12:29:42;11.20;99.90
46652;DHT22;32377;52.182;5.398;2024-03-22T12:32:09;11.30;99.90
46652;DHT22;32377;52.182;5.398;2024-03-22T12:34:35;11.40;99.90
46652;DHT22;32377;52.182;5.398;2024-03-22T12:37:01;11.30;99.90
46652;DHT22;32377;52.182;5.398;2024-03-22T12:39:28;11.40;99.90
46652;DHT22;32377;52.182;5.398;2024-03-22T12:41:53;11.30;99.90
46652;DHT22;32377;52.182;5.398;2024-03-22T12:44:19;11.30;99.90
46652;DHT22;32377;52.182;5.398;2024-03-22T12:46:45;11.40;99.90
46652;DHT22;32377;52.182;5.398;2024-03-22T12:49:11;11.50;99.90
46652;DHT22;32377;52.182;5.398;2024-03-22T12:51:37;11.50;99.90
46652;DHT22;32377;52.182;5.398;2024-03-22T12:54:03;11.40;99.90
46652;DHT22;32377;52.182;5.398;2024-03-22T12:56:30;11.30;99.90
46652;DHT22;32377;52.182;5.398;2024-03-22T12:58:55;11.30;99.90
46652;DHT22;32377;52.182;5.398;2024-03-22T13:01:21;11.10;99.90
46652;DHT22;32377;52.182;5.398;2024-03-22T13:03:47;11.00;99.90
46652;DHT22;32377;52.182;5.398;2024-03-22T13:06:13;11.00;99.90
46652;DHT22;32377;52.182;5.398;2024-03-22T13:08:39;10.90;99.90
46652;DHT22;32377;52.182;5.398;2024-03-22T13:11:05;11.00;99.90
46652;DHT22;32377;52.182;5.398;2024-03-22T13:13:31;11.10;99.90
46652;DHT22;32377;52.182;5.398;2024-03-22T13:15:57;11.10;99.90
46652;DHT22;32377;52.182;5.398;2024-03-22T13:18:23;11.10;99.90
46652;DHT22;32377;52.182;5.398;2024-03-22T13:20:49;10.90;99.90
46652;DHT22;32377;52.182;5.398;2024-03-22T13:23:15;10.90;99.90
46652;DHT22;32377;52.182;5.398;2024-03-22T13:25:40;11.00;99.90
46652;DHT22;32377;52.182;5.398;2024-03-22T13:28:06;11.10;99.90
46652;DHT22;32377;52.182;5.398;2024-03-22T13:30:32;11.10;99.90
46652;DHT22;32377;52.182;5.398;2024-03-22T13:32:58;11.10;99.90
46652;DHT22;32377;52.182;5.398;2024-03-22T13:35:24;11.20;99.90
46652;DHT22;32377;52.182;5.398;2024-03-22T13:37:50;11.30;99.90
46652;DHT22;32377;52.182;5.398;2024-03-22T13:40:16;11.20;99.90
46652;DHT22;32377;52.182;5.398;2024-03-22T13:42:41;11.20;99.90
46652;DHT22;32377;52.182;5.398;2024-03-22T13:45:07;11.20;99.90
46652;DHT22;32377;52.182;5.398;2024-03-22T13:47:33;11.20;99.90
46652;DHT22;32377;52.182;5.398;2024-03-22T13:49:59;11.20;99.90
46652;DHT22;32377;52.182;5.398;2024-03-22T13:52:24;11.30;99.90
46652;DHT22;32377;52.182;5.398;2024-03-22T13:54:51;11.30;99.90
46652;DHT22;32377;52.182;5.398;2024-03-22T13:57:16;11.30;99.90
46652;DHT22;32377;52.182;5.398;2024-03-22T13:59:42;11.40;99.90
46652;DHT22;32377;52.182;5.398;2024-03-22T14:02:08;11.40;99.90
46652;DHT22;32377;52.182;5.398;2024-03-22T14:04:34;11.40;99.90
46652;DHT22;32377;52.182;5.398;2024-03-22T14:07:00;11.30;99.90
46652;DHT22;32377;52.182;5.398;2024-03-22T14:09:32;11.30;99.90
46652;DHT22;32377;52.182;5.398;2024-03-22T14:11:58;11.30;99.90
46652;DHT22;32377;52.182;5.398;2024-03-22T14:14:25;11.30;99.90
46652;DHT22;32377;52.182;5.398;2024-03-22T14:16:51;11.20;99.90
46652;DHT22;32377;52.182;5.398;2024-03-22T14:19:17;11.20;99.90
46652;DHT22;32377;52.182;5.398;2024-03-22T14:21:47;11.30;99.90
46652;DHT22;32377;52.182;5.398;2024-03-22T14:24:13;11.30;99.90
46652;DHT22;32377;52.182;5.398;2024-03-22T14:26:39;11.30;99.90
46652;DHT22;32377;52.182;5.398;2024-03-22T14:29:14;11.30;99.90
46652;DHT22;32377;52.182;5.398;2024-03-22T14:31:39;11.30;99.90
46652;DHT22;32377;52.182;5.398;2024-03-22T14:34:08;11.30;99.90
46652;DHT22;32377;52.182;5.398;2024-03-22T14:36:34;11.20;99.90
46652;DHT22;32377;52.182;5.398;2024-03-22T14:39:00;11.30;99.90
46652;DHT22;32377;52.182;5.398;2024-03-22T14:41:26;11.30;99.90
46652;DHT22;32377;52.182;5.398;2024-03-22T14:43:52;11.20;99.90
46652;DHT22;32377;52.182;5.398;2024-03-22T14:46:18;11.30;99.90
46652;DHT22;32377;52.182;5.398;2024-03-22T14:48:45;11.30;99.90
46652;DHT22;32377;52.182;5.398;2024-03-22T14:51:11;11.20;99.90
46652;DHT22;32377;52.182;5.398;2024-03-22T14:53:37;11.10;99.90
46652;DHT22;32377;52.182;5.398;2024-03-22T14:56:03;11.10;99.90
46652;DHT22;32377;52.182;5.398;2024-03-22T14:58:36;11.10;99.90
46652;DHT22;32377;52.182;5.398;2024-03-22T15:01:05;10.90;99.90
46652;DHT22;32377;52.182;5.398;2024-03-22T15:03:32;10.90;99.90
46652;DHT22;32377;52.182;5.398;2024-03-22T15:05:59;11.00;99.90
46652;DHT22;32377;52.182;5.398;2024-03-22T15:08:25;11.00;99.90
46652;DHT22;32377;52.182;5.398;2024-03-22T15:10:51;11.00;99.90
46652;DHT22;32377;52.182;5.398;2024-03-22T15:13:17;11.00;99.90
46652;DHT22;32377;52.182;5.398;2024-03-22T15:15:51;11.10;99.90
46652;DHT22;32377;52.182;5.398;2024-03-22T15:18:17;11.00;99.90
46652;DHT22;32377;52.182;5.398;2024-03-22T15:20:42;10.90;99.90
46652;DHT22;32377;52.182;5.398;2024-03-22T15:23:08;10.60;99.90
46652;DHT22;32377;52.182;5.398;2024-03-22T15:25:34;10.40;99.90
46652;DHT22;32377;52.182;5.398;2024-03-22T15:27:59;10.40;99.90
46652;DHT22;32377;52.182;5.398;2024-03-22T15:30:25;10.50;99.90